sensor_id;sensor_type;location;lat;lon;timestamp;P1;durP1;ratioP1;P2;durP2;ratioP2
14789;SDS011;7486;51.010;10.366;2024-01-15T00:02:24;29.17;;;16.03;;
14789;SDS011;7486;51.010;10.366;2024-01-15T00:05:11;26.47;;;15.27;;
14789;SDS011;7486;51.010;10.366;2024-01-15T00:07:57;26.33;;;15.53;;
14789;SDS011;7486;51.010;10.366;2024-01-15T00:10:42;26.87;;;15.43;;
14789;SDS011;7486;51.010;10.366;2024-01-15T00:13:28;30.10;;;15.27;;
14789;SDS011;7486;51.010;10.366;2024-01-15T00:16:13;28.80;;;14.90;;
14789;SDS011;7486;51.010;10.366;2024-01-15T00:18:59;27.07;;;15.07;;
14789;SDS011;7486;51.010;10.366;2024-01-15T00:21:44;26.03;;;15.47;;
14789;SDS011;7486;51.010;10.366;2024-01-15T00:24:30;25.23;;;14.37;;
14789;SDS011;7486;51.010;10.366;2024-01-15T00:27:15;25.47;;;15.17;;
14789;SDS011;7486;51.010;10.366;2024-01-15T00:30:01;27.50;;;14.50;;
14789;SDS011;7486;51.010;10.366;2024-01-15T00:32:47;28.13;;;15.03;;
14789;SDS011;7486;51.010;10.366;2024-01-15T00:35:32;22.67;;;13.20;;
14789;SDS011;7486;51.010;10.366;2024-01-15T00:38:18;25.27;;;14.73;;
14789;SDS011;7486;51.010;10.366;2024-01-15T00:41:03;24.37;;;13.07;;
14789;SDS011;7486;51.010;10.366;2024-01-15T00:43:49;23.97;;;14.37;;
14789;SDS011;7486;51.010;10.366;2024-01-15T00:46:41;25.10;;;14.37;;
14789;SDS011;7486;51.010;10.366;2024-01-15T00:49:28;24.43;;;14.00;;
14789;SDS011;7486;51.010;10.366;2024-01-15T00:52:14;26.20;;;14.00;;
14789;SDS011;7486;51.010;10.366;2024-01-15T00:55:00;26.40;;;14.13;;
14789;SDS011;7486;51.010;10.366;2024-01-15T00:57:45;24.53;;;14.47;;
14789;SDS011;7486;51.010;10.366;2024-01-15T01:00:31;24.40;;;13.13;;
14789;SDS011;7486;51.010;10.366;2024-01-15T01:03:16;22.77;;;12.87;;
14789;SDS011;7486;51.010;10.366;2024-01-15T01:06:02;23.57;;;13.37;;
14789;SDS011;7486;51.010;10.366;2024-01-15T01:08:48;24.43;;;13.50;;
14789;SDS011;7486;51.010;10.366;2024-01-15T01:11:33;20.53;;;12.80;;
14789;SDS011;7486;51.010;10.366;2024-01-15T01:14:20;22.63;;;12.83;;
14789;SDS011;7486;51.010;10.366;2024-01-15T01:17:05;22.00;;;12.70;;
14789;SDS011;7486;51.010;10.366;2024-01-15T01:19:51;24.20;;;13.20;;
14789;SDS011;7486;51.010;10.366;2024-01-15T01:22:36;21.70;;;12.63;;
14789;SDS011;7486;51.010;10.366;2024-01-15T01:25:22;22.43;;;12.33;;
14789;SDS011;7486;51.010;10.366;2024-01-15T01:28:07;18.90;;;11.60;;
14789;SDS011;7486;51.010;10.366;2024-01-15T01:30:53;20.60;;;11.93;;
14789;SDS011;7486;51.010;10.366;2024-01-15T01:33:39;20.27;;;11.43;;
14789;SDS011;7486;51.010;10.366;2024-01-15T01:36:24;19.27;;;11.40;;
14789;SDS011;7486;51.010;10.366;2024-01-15T01:39:10;18.50;;;11.27;;
14789;SDS011;7486;51.010;10.366;2024-01-15T01:41:55;17.47;;;10.97;;
14789;SDS011;7486;51.010;10.366;2024-01-15T01:44:41;19.40;;;11.40;;
14789;SDS011;7486;51.010;10.366;2024-01-15T01:47:26;19.20;;;11.40;;
14789;SDS011;7486;51.010;10.366;2024-01-15T01:50:12;16.67;;;10.20;;
14789;SDS011;7486;51.010;10.366;2024-01-15T01:53:00;17.70;;;11.13;;
14789;SDS011;7486;51.010;10.366;2024-01-15T01:55:46;17.47;;;10.53;;
14789;SDS011;7486;51.010;10.366;2024-01-15T01:58:33;16.20;;;10.37;;
14789;SDS011;7486;51.010;10.366;2024-01-15T02:01:20;16.73;;;10.20;;
14789;SDS011;7486;51.010;10.366;2024-01-15T02:04:05;16.20;;;10.30;;
14789;SDS011;7486;51.010;10.366;2024-01-15T02:06:51;17.17;;;9.90;;
14789;SDS011;7486;51.010;10.366;2024-01-15T02:09:37;15.47;;;9.70;;
14789;SDS011;7486;51.010;10.366;2024-01-15T02:12:23;16.53;;;9.90;;
14789;SDS011;7486;51.010;10.366;2024-01-15T02:15:09;17.20;;;10.13;;
14789;SDS011;7486;51.010;10.366;2024-01-15T02:17:58;16.50;;;9.83;;
14789;SDS011;7486;51.010;10.366;2024-01-15T02:20:45;16.13;;;9.93;;
14789;SDS011;7486;51.010;10.366;2024-01-15T02:23:30;16.13;;;9.87;;
14789;SDS011;7486;51.010;10.366;2024-01-15T02:26:15;15.23;;;9.40;;
14789;SDS011;7486;51.010;10.366;2024-01-15T02:29:01;15.23;;;9.50;;
14789;SDS011;7486;51.010;10.366;2024-01-15T02:31:47;16.33;;;9.33;;
14789;SDS011;7486;51.010;10.366;2024-01-15T02:34:33;17.50;;;10.00;;
14789;SDS011;7486;51.010;10.366;2024-01-15T02:37:18;15.67;;;9.30;;
14789;SDS011;7486;51.010;10.366;2024-01-15T02:40:04;15.27;;;9.63;;
14789;SDS011;7486;51.010;10.366;2024-01-15T02:42:50;15.10;;;8.70;;
14789;SDS011;7486;51.010;10.366;2024-01-15T02:45:35;17.47;;;9.93;;
14789;SDS011;7486;51.010;10.366;2024-01-15T02:48:21;15.63;;;9.77;;
14789;SDS011;7486;51.010;10.366;2024-01-15T02:51:07;14.63;;;8.97;;
14789;SDS011;7486;51.010;10.366;2024-01-15T02:53:52;16.90;;;9.40;;
14789;SDS011;7486;51.010;10.366;2024-01-15T02:56:38;14.83;;;9.43;;
14789;SDS011;7486;51.010;10.366;2024-01-15T02:59:23;17.03;;;10.10;;
14789;SDS011;7486;51.010;10.366;2024-01-15T03:02:08;16.03;;;9.00;;
14789;SDS011;7486;51.010;10.366;2024-01-15T03:04:54;15.60;;;8.93;;
14789;SDS011;7486;51.010;10.366;2024-01-15T03:07:39;16.87;;;9.30;;
14789;SDS011;7486;51.010;10.366;2024-01-15T03:10:25;14.57;;;9.37;;
14789;SDS011;7486;51.010;10.366;2024-01-15T03:13:10;14.00;;;9.03;;
14789;SDS011;7486;51.010;10.366;2024-01-15T03:15:56;15.77;;;9.43;;
14789;SDS011;7486;51.010;10.366;2024-01-15T03:18:41;15.17;;;8.23;;
14789;SDS011;7486;51.010;10.366;2024-01-15T03:21:27;14.53;;;8.63;;
14789;SDS011;7486;51.010;10.366;2024-01-15T03:24:12;15.80;;;9.10;;
14789;SDS011;7486;51.010;10.366;2024-01-15T03:26:58;14.73;;;8.47;;
14789;SDS011;7486;51.010;10.366;2024-01-15T03:29:44;14.33;;;8.70;;
14789;SDS011;7486;51.010;10.366;2024-01-15T03:32:29;12.53;;;8.43;;
14789;SDS011;7486;51.010;10.366;2024-01-15T03:35:15;13.57;;;8.97;;
14789;SDS011;7486;51.010;10.366;2024-01-15T03:38:00;13.37;;;8.83;;
14789;SDS011;7486;51.010;10.366;2024-01-15T03:40:46;15.57;;;8.67;;
14789;SDS011;7486;51.010;10.366;2024-01-15T03:43:32;15.63;;;8.97;;
14789;SDS011;7486;51.010;10.366;2024-01-15T03:46:17;13.40;;;8.60;;
14789;SDS011;7486;51.010;10.366;2024-01-15T03:49:03;14.07;;;8.23;;
14789;SDS011;7486;51.010;10.366;2024-01-15T03:51:48;12.70;;;8.33;;
14789;SDS011;7486;51.010;10.366;2024-01-15T03:54:34;13.10;;;8.73;;
14789;SDS011;7486;51.010;10.366;2024-01-15T03:57:20;12.60;;;8.63;;
14789;SDS011;7486;51.010;10.366;2024-01-15T04:00:06;13.13;;;8.57;;
14789;SDS011;7486;51.010;10.366;2024-01-15T04:02:52;13.80;;;8.53;;
14789;SDS011;7486;51.010;10.366;2024-01-15T04:05:38;14.60;;;9.10;;
14789;SDS011;7486;51.010;10.366;2024-01-15T04:08:23;12.70;;;8.60;;
14789;SDS011;7486;51.010;10.366;2024-01-15T04:11:09;15.00;;;8.83;;
14789;SDS011;7486;51.010;10.366;2024-01-15T04:13:55;13.27;;;9.10;;
14789;SDS011;7486;51.010;10.366;2024-01-15T04:16:40;12.90;;;8.67;;
14789;SDS011;7486;51.010;10.366;2024-01-15T04:19:26;12.33;;;8.13;;
14789;SDS011;7486;51.010;10.366;2024-01-15T04:22:13;13.33;;;8.27;;
14789;SDS011;7486;51.010;10.366;2024-01-15T04:24:58;12.63;;;8.07;;
14789;SDS011;7486;51.010;10.366;2024-01-15T04:27:43;12.07;;;8.50;;
14789;SDS011;7486;51.010;10.366;2024-01-15T04:30:29;12.00;;;8.90;;
14789;SDS011;7486;51.010;10.366;2024-01-15T04:33:15;13.53;;;8.23;;
14789;SDS011;7486;51.010;10.366;2024-01-15T04:36:02;12.70;;;8.17;;
14789;SDS011;7486;51.010;10.366;2024-01-15T04:38:49;13.03;;;8.67;;
14789;SDS011;7486;51.010;10.366;2024-01-15T04:41:34;12.43;;;8.30;;
14789;SDS011;7486;51.010;10.366;2024-01-15T04:44:20;11.93;;;7.77;;
14789;SDS011;7486;51.010;10.366;2024-01-15T04:47:05;13.37;;;8.10;;
14789;SDS011;7486;51.010;10.366;2024-01-15T04:49:51;13.30;;;8.53;;
14789;SDS011;7486;51.010;10.366;2024-01-15T04:52:36;13.90;;;8.73;;
14789;SDS011;7486;51.010;10.366;2024-01-15T04:55:22;12.50;;;8.43;;
14789;SDS011;7486;51.010;10.366;2024-01-15T04:58:08;13.13;;;8.50;;
14789;SDS011;7486;51.010;10.366;2024-01-15T05:00:53;13.33;;;8.13;;
14789;SDS011;7486;51.010;10.366;2024-01-15T05:03:39;15.47;;;8.90;;
14789;SDS011;7486;51.010;10.366;2024-01-15T05:06:24;14.77;;;9.17;;
14789;SDS011;7486;51.010;10.366;2024-01-15T05:09:10;14.07;;;8.97;;
14789;SDS011;7486;51.010;10.366;2024-01-15T05:11:55;13.50;;;9.00;;
14789;SDS011;7486;51.010;10.366;2024-01-15T05:14:42;14.67;;;9.00;;
14789;SDS011;7486;51.010;10.366;2024-01-15T05:17:27;15.03;;;9.47;;
14789;SDS011;7486;51.010;10.366;2024-01-15T05:20:13;12.30;;;8.50;;
14789;SDS011;7486;51.010;10.366;2024-01-15T05:22:58;14.33;;;9.13;;
14789;SDS011;7486;51.010;10.366;2024-01-15T05:25:44;14.80;;;9.10;;
14789;SDS011;7486;51.010;10.366;2024-01-15T05:28:29;13.17;;;8.57;;
14789;SDS011;7486;51.010;10.366;2024-01-15T05:31:14;13.73;;;8.67;;
14789;SDS011;7486;51.010;10.366;2024-01-15T05:34:01;15.10;;;8.83;;
14789;SDS011;7486;51.010;10.366;2024-01-15T05:36:46;14.87;;;9.20;;
14789;SDS011;7486;51.010;10.366;2024-01-15T05:39:32;13.00;;;8.77;;
14789;SDS011;7486;51.010;10.366;2024-01-15T05:42:18;13.67;;;9.47;;
14789;SDS011;7486;51.010;10.366;2024-01-15T05:45:04;12.60;;;8.93;;
14789;SDS011;7486;51.010;10.366;2024-01-15T05:47:49;12.40;;;8.07;;
14789;SDS011;7486;51.010;10.366;2024-01-15T05:50:35;14.13;;;8.70;;
14789;SDS011;7486;51.010;10.366;2024-01-15T05:53:21;14.30;;;8.87;;
14789;SDS011;7486;51.010;10.366;2024-01-15T05:56:07;13.23;;;8.67;;
14789;SDS011;7486;51.010;10.366;2024-01-15T05:58:52;14.50;;;8.57;;
14789;SDS011;7486;51.010;10.366;2024-01-15T06:01:37;13.67;;;8.63;;
14789;SDS011;7486;51.010;10.366;2024-01-15T06:04:23;16.10;;;8.73;;
14789;SDS011;7486;51.010;10.366;2024-01-15T06:07:09;15.67;;;9.80;;
14789;SDS011;7486;51.010;10.366;2024-01-15T06:09:54;12.73;;;8.30;;
14789;SDS011;7486;51.010;10.366;2024-01-15T06:12:40;12.07;;;8.37;;
14789;SDS011;7486;51.010;10.366;2024-01-15T06:15:26;15.60;;;9.00;;
14789;SDS011;7486;51.010;10.366;2024-01-15T06:18:11;12.63;;;8.33;;
14789;SDS011;7486;51.010;10.366;2024-01-15T06:20:57;14.33;;;8.60;;
14789;SDS011;7486;51.010;10.366;2024-01-15T06:23:43;13.63;;;8.33;;
14789;SDS011;7486;51.010;10.366;2024-01-15T06:26:28;14.50;;;8.83;;
14789;SDS011;7486;51.010;10.366;2024-01-15T06:29:14;15.30;;;8.53;;
14789;SDS011;7486;51.010;10.366;2024-01-15T06:31:59;13.97;;;8.50;;
14789;SDS011;7486;51.010;10.366;2024-01-15T06:34:45;13.87;;;8.47;;
14789;SDS011;7486;51.010;10.366;2024-01-15T06:37:30;12.07;;;8.27;;
14789;SDS011;7486;51.010;10.366;2024-01-15T06:40:16;15.00;;;8.90;;
14789;SDS011;7486;51.010;10.366;2024-01-15T06:43:01;13.57;;;8.33;;
14789;SDS011;7486;51.010;10.366;2024-01-15T06:45:46;12.83;;;8.33;;
14789;SDS011;7486;51.010;10.366;2024-01-15T06:48:32;13.23;;;8.43;;
14789;SDS011;7486;51.010;10.366;2024-01-15T06:51:18;13.27;;;9.03;;
14789;SDS011;7486;51.010;10.366;2024-01-15T06:54:03;13.63;;;8.93;;
14789;SDS011;7486;51.010;10.366;2024-01-15T06:56:50;12.60;;;8.43;;
14789;SDS011;7486;51.010;10.366;2024-01-15T06:59:35;13.70;;;8.77;;
14789;SDS011;7486;51.010;10.366;2024-01-15T07:02:21;14.63;;;8.47;;
14789;SDS011;7486;51.010;10.366;2024-01-15T07:05:06;13.23;;;8.57;;
14789;SDS011;7486;51.010;10.366;2024-01-15T07:07:52;13.73;;;8.90;;
14789;SDS011;7486;51.010;10.366;2024-01-15T07:10:38;13.17;;;8.77;;
14789;SDS011;7486;51.010;10.366;2024-01-15T07:13:23;13.43;;;8.30;;
14789;SDS011;7486;51.010;10.366;2024-01-15T07:16:09;12.70;;;8.00;;
14789;SDS011;7486;51.010;10.366;2024-01-15T07:18:54;13.77;;;8.17;;
14789;SDS011;7486;51.010;10.366;2024-01-15T07:21:40;13.80;;;8.47;;
14789;SDS011;7486;51.010;10.366;2024-01-15T07:24:25;13.30;;;8.17;;
14789;SDS011;7486;51.010;10.366;2024-01-15T07:27:11;12.93;;;8.23;;
14789;SDS011;7486;51.010;10.366;2024-01-15T07:29:56;12.60;;;8.23;;
14789;SDS011;7486;51.010;10.366;2024-01-15T07:32:46;13.20;;;7.87;;
14789;SDS011;7486;51.010;10.366;2024-01-15T07:35:32;11.23;;;7.67;;
14789;SDS011;7486;51.010;10.366;2024-01-15T07:38:17;12.00;;;7.90;;
14789;SDS011;7486;51.010;10.366;2024-01-15T07:41:03;13.63;;;8.17;;
14789;SDS011;7486;51.010;10.366;2024-01-15T07:43:48;11.57;;;7.77;;
14789;SDS011;7486;51.010;10.366;2024-01-15T07:46:34;13.43;;;8.53;;
14789;SDS011;7486;51.010;10.366;2024-01-15T07:49:19;11.60;;;7.93;;
14789;SDS011;7486;51.010;10.366;2024-01-15T07:52:05;13.70;;;8.30;;
14789;SDS011;7486;51.010;10.366;2024-01-15T07:54:50;13.93;;;8.30;;
14789;SDS011;7486;51.010;10.366;2024-01-15T07:57:36;13.50;;;8.50;;
14789;SDS011;7486;51.010;10.366;2024-01-15T08:00:21;12.80;;;8.20;;
14789;SDS011;7486;51.010;10.366;2024-01-15T08:03:07;14.07;;;8.27;;
14789;SDS011;7486;51.010;10.366;2024-01-15T08:05:52;14.00;;;8.17;;
14789;SDS011;7486;51.010;10.366;2024-01-15T08:08:38;16.10;;;9.27;;
14789;SDS011;7486;51.010;10.366;2024-01-15T08:11:23;13.23;;;7.67;;
14789;SDS011;7486;51.010;10.366;2024-01-15T08:14:09;13.63;;;8.70;;
14789;SDS011;7486;51.010;10.366;2024-01-15T08:16:55;15.07;;;10.03;;
14789;SDS011;7486;51.010;10.366;2024-01-15T08:19:40;15.17;;;9.07;;
14789;SDS011;7486;51.010;10.366;2024-01-15T08:22:26;13.97;;;8.47;;
14789;SDS011;7486;51.010;10.366;2024-01-15T08:25:16;15.63;;;8.73;;
14789;SDS011;7486;51.010;10.366;2024-01-15T08:28:01;13.63;;;8.30;;
14789;SDS011;7486;51.010;10.366;2024-01-15T08:30:46;15.10;;;9.03;;
14789;SDS011;7486;51.010;10.366;2024-01-15T08:33:32;12.17;;;8.50;;
14789;SDS011;7486;51.010;10.366;2024-01-15T08:36:18;13.90;;;8.00;;
14789;SDS011;7486;51.010;10.366;2024-01-15T08:39:03;11.77;;;7.90;;
14789;SDS011;7486;51.010;10.366;2024-01-15T08:41:49;11.93;;;7.63;;
14789;SDS011;7486;51.010;10.366;2024-01-15T08:44:34;14.13;;;8.23;;
14789;SDS011;7486;51.010;10.366;2024-01-15T08:47:19;12.10;;;7.90;;
14789;SDS011;7486;51.010;10.366;2024-01-15T08:50:05;14.60;;;8.47;;
14789;SDS011;7486;51.010;10.366;2024-01-15T08:52:52;12.80;;;7.93;;
14789;SDS011;7486;51.010;10.366;2024-01-15T08:55:37;13.70;;;8.10;;
14789;SDS011;7486;51.010;10.366;2024-01-15T08:58:23;11.73;;;7.80;;
14789;SDS011;7486;51.010;10.366;2024-01-15T09:01:09;11.80;;;7.87;;
14789;SDS011;7486;51.010;10.366;2024-01-15T09:03:54;12.50;;;8.07;;
14789;SDS011;7486;51.010;10.366;2024-01-15T09:06:40;12.80;;;8.27;;
14789;SDS011;7486;51.010;10.366;2024-01-15T09:09:25;12.57;;;7.67;;
14789;SDS011;7486;51.010;10.366;2024-01-15T09:12:10;12.87;;;7.87;;
14789;SDS011;7486;51.010;10.366;2024-01-15T09:14:56;13.27;;;8.33;;
14789;SDS011;7486;51.010;10.366;2024-01-15T09:17:41;12.67;;;8.63;;
14789;SDS011;7486;51.010;10.366;2024-01-15T09:20:26;12.57;;;8.17;;
14789;SDS011;7486;51.010;10.366;2024-01-15T09:23:12;12.33;;;8.23;;
14789;SDS011;7486;51.010;10.366;2024-01-15T09:25:57;12.97;;;8.20;;
14789;SDS011;7486;51.010;10.366;2024-01-15T09:28:43;13.13;;;8.47;;
14789;SDS011;7486;51.010;10.366;2024-01-15T09:31:28;14.43;;;8.60;;
14789;SDS011;7486;51.010;10.366;2024-01-15T09:34:14;12.80;;;8.20;;
14789;SDS011;7486;51.010;10.366;2024-01-15T09:37:01;13.70;;;8.47;;
14789;SDS011;7486;51.010;10.366;2024-01-15T09:39:46;14.03;;;7.93;;
14789;SDS011;7486;51.010;10.366;2024-01-15T09:42:31;16.10;;;8.70;;
14789;SDS011;7486;51.010;10.366;2024-01-15T09:45:18;12.33;;;7.80;;
14789;SDS011;7486;51.010;10.366;2024-01-15T09:48:03;15.53;;;8.40;;
14789;SDS011;7486;51.010;10.366;2024-01-15T09:50:49;12.97;;;8.07;;
14789;SDS011;7486;51.010;10.366;2024-01-15T09:53:35;13.27;;;7.90;;
14789;SDS011;7486;51.010;10.366;2024-01-15T09:56:22;14.30;;;7.80;;
14789;SDS011;7486;51.010;10.366;2024-01-15T09:59:09;12.37;;;7.63;;
14789;SDS011;7486;51.010;10.366;2024-01-15T10:01:54;13.57;;;7.77;;
14789;SDS011;7486;51.010;10.366;2024-01-15T10:04:41;13.87;;;7.63;;
14789;SDS011;7486;51.010;10.366;2024-01-15T10:07:27;11.90;;;7.63;;
14789;SDS011;7486;51.010;10.366;2024-01-15T10:10:15;10.90;;;7.00;;
14789;SDS011;7486;51.010;10.366;2024-01-15T10:13:00;13.37;;;7.57;;
14789;SDS011;7486;51.010;10.366;2024-01-15T10:15:46;13.53;;;7.17;;
14789;SDS011;7486;51.010;10.366;2024-01-15T10:18:32;11.73;;;7.47;;
14789;SDS011;7486;51.010;10.366;2024-01-15T10:21:18;11.90;;;7.30;;
14789;SDS011;7486;51.010;10.366;2024-01-15T10:24:03;12.20;;;7.27;;
14789;SDS011;7486;51.010;10.366;2024-01-15T10:26:49;12.33;;;7.50;;
14789;SDS011;7486;51.010;10.366;2024-01-15T10:29:34;11.50;;;7.17;;
14789;SDS011;7486;51.010;10.366;2024-01-15T10:32:20;10.97;;;7.40;;
14789;SDS011;7486;51.010;10.366;2024-01-15T10:35:06;14.10;;;8.00;;
14789;SDS011;7486;51.010;10.366;2024-01-15T10:37:52;13.73;;;7.80;;
14789;SDS011;7486;51.010;10.366;2024-01-15T10:40:38;13.23;;;7.70;;
14789;SDS011;7486;51.010;10.366;2024-01-15T10:43:23;12.00;;;7.47;;
14789;SDS011;7486;51.010;10.366;2024-01-15T10:46:12;12.70;;;7.93;;
14789;SDS011;7486;51.010;10.366;2024-01-15T10:48:58;13.17;;;7.97;;
14789;SDS011;7486;51.010;10.366;2024-01-15T10:51:44;11.97;;;7.93;;
14789;SDS011;7486;51.010;10.366;2024-01-15T10:54:30;17.50;;;8.97;;
14789;SDS011;7486;51.010;10.366;2024-01-15T10:57:16;14.43;;;8.23;;
14789;SDS011;7486;51.010;10.366;2024-01-15T11:00:06;15.77;;;9.70;;
14789;SDS011;7486;51.010;10.366;2024-01-15T11:02:52;13.43;;;8.67;;
14789;SDS011;7486;51.010;10.366;2024-01-15T11:08:24;11.17;;;7.03;;
14789;SDS011;7486;51.010;10.366;2024-01-15T11:11:10;12.90;;;7.53;;
14789;SDS011;7486;51.010;10.366;2024-01-15T11:13:55;10.80;;;6.77;;
14789;SDS011;7486;51.010;10.366;2024-01-15T11:16:54;11.43;;;7.80;;
14789;SDS011;7486;51.010;10.366;2024-01-15T11:25:15;10.83;;;7.43;;
14789;SDS011;7486;51.010;10.366;2024-01-15T11:28:03;12.37;;;7.63;;
14789;SDS011;7486;51.010;10.366;2024-01-15T11:30:49;11.23;;;7.20;;
14789;SDS011;7486;51.010;10.366;2024-01-15T11:33:34;12.67;;;7.70;;
14789;SDS011;7486;51.010;10.366;2024-01-15T11:36:20;11.47;;;7.67;;
14789;SDS011;7486;51.010;10.366;2024-01-15T11:42:14;11.60;;;7.87;;
14789;SDS011;7486;51.010;10.366;2024-01-15T11:45:00;11.33;;;7.70;;
14789;SDS011;7486;51.010;10.366;2024-01-15T11:47:55;11.97;;;7.77;;
14789;SDS011;7486;51.010;10.366;2024-01-15T11:50:59;14.77;;;8.63;;
14789;SDS011;7486;51.010;10.366;2024-01-15T11:53:47;13.93;;;8.00;;
14789;SDS011;7486;51.010;10.366;2024-01-15T11:56:38;13.60;;;7.83;;
14789;SDS011;7486;51.010;10.366;2024-01-15T11:59:24;12.20;;;8.00;;
14789;SDS011;7486;51.010;10.366;2024-01-15T12:02:09;11.23;;;7.77;;
14789;SDS011;7486;51.010;10.366;2024-01-15T12:04:55;13.50;;;8.00;;
14789;SDS011;7486;51.010;10.366;2024-01-15T12:07:41;12.57;;;8.10;;
14789;SDS011;7486;51.010;10.366;2024-01-15T12:10:27;11.43;;;8.13;;
14789;SDS011;7486;51.010;10.366;2024-01-15T12:13:13;12.53;;;7.63;;
14789;SDS011;7486;51.010;10.366;2024-01-15T12:16:01;11.73;;;7.67;;
14789;SDS011;7486;51.010;10.366;2024-01-15T12:18:47;11.83;;;8.20;;
14789;SDS011;7486;51.010;10.366;2024-01-15T12:21:33;11.50;;;7.73;;
14789;SDS011;7486;51.010;10.366;2024-01-15T12:24:18;11.17;;;7.60;;
14789;SDS011;7486;51.010;10.366;2024-01-15T12:27:04;11.27;;;8.20;;
14789;SDS011;7486;51.010;10.366;2024-01-15T12:29:49;14.50;;;8.53;;
14789;SDS011;7486;51.010;10.366;2024-01-15T12:32:35;11.53;;;7.83;;
14789;SDS011;7486;51.010;10.366;2024-01-15T12:35:20;12.33;;;8.13;;
14789;SDS011;7486;51.010;10.366;2024-01-15T12:38:06;11.17;;;7.73;;
14789;SDS011;7486;51.010;10.366;2024-01-15T12:40:52;10.53;;;7.83;;
14789;SDS011;7486;51.010;10.366;2024-01-15T12:43:38;11.07;;;7.60;;
14789;SDS011;7486;51.010;10.366;2024-01-15T12:46:23;12.03;;;8.10;;
14789;SDS011;7486;51.010;10.366;2024-01-15T12:49:09;11.53;;;8.17;;
14789;SDS011;7486;51.010;10.366;2024-01-15T12:51:56;9.63;;;6.73;;
14789;SDS011;7486;51.010;10.366;2024-01-15T12:54:42;9.10;;;6.43;;
14789;SDS011;7486;51.010;10.366;2024-01-15T12:57:28;11.37;;;7.30;;
14789;SDS011;7486;51.010;10.366;2024-01-15T13:00:14;10.33;;;7.33;;
14789;SDS011;7486;51.010;10.366;2024-01-15T13:03:00;9.97;;;6.40;;
14789;SDS011;7486;51.010;10.366;2024-01-15T13:05:47;10.00;;;7.17;;
14789;SDS011;7486;51.010;10.366;2024-01-15T13:08:32;8.83;;;6.40;;
14789;SDS011;7486;51.010;10.366;2024-01-15T13:11:18;10.03;;;6.57;;
14789;SDS011;7486;51.010;10.366;2024-01-15T13:14:03;9.87;;;7.03;;
14789;SDS011;7486;51.010;10.366;2024-01-15T13:16:49;8.47;;;6.37;;
14789;SDS011;7486;51.010;10.366;2024-01-15T13:19:34;10.63;;;6.73;;
14789;SDS011;7486;51.010;10.366;2024-01-15T13:22:19;8.77;;;6.33;;
14789;SDS011;7486;51.010;10.366;2024-01-15T13:25:07;11.83;;;7.00;;
14789;SDS011;7486;51.010;10.366;2024-01-15T13:27:54;11.07;;;6.43;;
14789;SDS011;7486;51.010;10.366;2024-01-15T13:30:39;8.17;;;6.43;;
14789;SDS011;7486;51.010;10.366;2024-01-15T13:33:25;9.40;;;6.40;;
14789;SDS011;7486;51.010;10.366;2024-01-15T13:36:11;9.63;;;6.27;;
14789;SDS011;7486;51.010;10.366;2024-01-15T13:38:56;9.43;;;6.03;;
14789;SDS011;7486;51.010;10.366;2024-01-15T13:41:42;9.97;;;6.67;;
14789;SDS011;7486;51.010;10.366;2024-01-15T13:44:28;9.33;;;6.47;;
14789;SDS011;7486;51.010;10.366;2024-01-15T13:47:13;9.30;;;6.70;;
14789;SDS011;7486;51.010;10.366;2024-01-15T13:49:59;10.27;;;6.47;;
14789;SDS011;7486;51.010;10.366;2024-01-15T13:52:45;9.77;;;6.50;;
14789;SDS011;7486;51.010;10.366;2024-01-15T13:55:31;8.60;;;6.27;;
14789;SDS011;7486;51.010;10.366;2024-01-15T13:58:17;8.20;;;5.97;;
14789;SDS011;7486;51.010;10.366;2024-01-15T14:01:04;7.83;;;6.23;;
14789;SDS011;7486;51.010;10.366;2024-01-15T14:03:49;7.23;;;5.80;;
14789;SDS011;7486;51.010;10.366;2024-01-15T14:06:35;8.87;;;5.90;;
14789;SDS011;7486;51.010;10.366;2024-01-15T14:09:21;8.53;;;6.13;;
14789;SDS011;7486;51.010;10.366;2024-01-15T14:12:06;8.23;;;5.63;;
14789;SDS011;7486;51.010;10.366;2024-01-15T14:14:52;8.57;;;6.13;;
14789;SDS011;7486;51.010;10.366;2024-01-15T14:17:37;9.27;;;6.30;;
14789;SDS011;7486;51.010;10.366;2024-01-15T14:20:23;9.13;;;6.27;;
14789;SDS011;7486;51.010;10.366;2024-01-15T14:23:08;10.77;;;6.70;;
14789;SDS011;7486;51.010;10.366;2024-01-15T14:25:54;8.93;;;6.07;;
14789;SDS011;7486;51.010;10.366;2024-01-15T14:28:41;8.67;;;5.20;;
14789;SDS011;7486;51.010;10.366;2024-01-15T14:31:26;7.70;;;5.47;;
14789;SDS011;7486;51.010;10.366;2024-01-15T14:34:12;6.73;;;5.30;;
14789;SDS011;7486;51.010;10.366;2024-01-15T14:36:57;7.27;;;5.33;;
14789;SDS011;7486;51.010;10.366;2024-01-15T14:39:43;7.77;;;5.23;;
14789;SDS011;7486;51.010;10.366;2024-01-15T14:42:29;7.50;;;5.17;;
14789;SDS011;7486;51.010;10.366;2024-01-15T14:45:15;8.03;;;5.67;;
14789;SDS011;7486;51.010;10.366;2024-01-15T14:48:01;7.23;;;5.10;;
14789;SDS011;7486;51.010;10.366;2024-01-15T14:50:46;6.50;;;5.03;;
14789;SDS011;7486;51.010;10.366;2024-01-15T14:53:32;8.73;;;5.47;;
14789;SDS011;7486;51.010;10.366;2024-01-15T14:56:17;7.77;;;5.43;;
14789;SDS011;7486;51.010;10.366;2024-01-15T14:59:03;5.90;;;4.80;;
14789;SDS011;7486;51.010;10.366;2024-01-15T15:01:48;8.10;;;5.27;;
14789;SDS011;7486;51.010;10.366;2024-01-15T15:04:35;6.60;;;5.13;;
14789;SDS011;7486;51.010;10.366;2024-01-15T15:07:21;7.30;;;5.10;;
14789;SDS011;7486;51.010;10.366;2024-01-15T15:10:07;8.73;;;5.53;;
14789;SDS011;7486;51.010;10.366;2024-01-15T15:12:54;7.57;;;5.30;;
14789;SDS011;7486;51.010;10.366;2024-01-15T15:15:39;7.77;;;5.33;;
14789;SDS011;7486;51.010;10.366;2024-01-15T15:18:24;7.83;;;5.13;;
14789;SDS011;7486;51.010;10.366;2024-01-15T15:21:10;6.23;;;4.97;;
14789;SDS011;7486;51.010;10.366;2024-01-15T15:23:56;6.63;;;4.40;;
14789;SDS011;7486;51.010;10.366;2024-01-15T15:26:41;7.83;;;4.83;;
14789;SDS011;7486;51.010;10.366;2024-01-15T15:29:27;5.93;;;4.70;;
14789;SDS011;7486;51.010;10.366;2024-01-15T15:32:13;7.60;;;5.20;;
14789;SDS011;7486;51.010;10.366;2024-01-15T15:34:58;7.60;;;5.17;;
14789;SDS011;7486;51.010;10.366;2024-01-15T15:37:44;6.73;;;4.10;;
14789;SDS011;7486;51.010;10.366;2024-01-15T15:40:29;5.43;;;4.20;;
14789;SDS011;7486;51.010;10.366;2024-01-15T15:43:15;4.97;;;3.77;;
14789;SDS011;7486;51.010;10.366;2024-01-15T15:46:01;5.23;;;3.70;;
14789;SDS011;7486;51.010;10.366;2024-01-15T15:48:46;5.37;;;3.83;;
14789;SDS011;7486;51.010;10.366;2024-01-15T15:51:32;5.27;;;4.00;;
14789;SDS011;7486;51.010;10.366;2024-01-15T15:54:18;5.23;;;3.97;;
14789;SDS011;7486;51.010;10.366;2024-01-15T15:57:04;4.53;;;3.73;;
14789;SDS011;7486;51.010;10.366;2024-01-15T15:59:49;6.10;;;5.43;;
14789;SDS011;7486;51.010;10.366;2024-01-15T16:02:35;6.07;;;5.07;;
14789;SDS011;7486;51.010;10.366;2024-01-15T16:05:21;5.93;;;4.10;;
14789;SDS011;7486;51.010;10.366;2024-01-15T16:08:21;4.43;;;4.00;;
14789;SDS011;7486;51.010;10.366;2024-01-15T16:11:07;52.00;;;6.63;;
14789;SDS011;7486;51.010;10.366;2024-01-15T16:13:53;13.60;;;5.37;;
14789;SDS011;7486;51.010;10.366;2024-01-15T16:16:39;5.13;;;4.63;;
14789;SDS011;7486;51.010;10.366;2024-01-15T16:19:44;3.73;;;3.03;;
14789;SDS011;7486;51.010;10.366;2024-01-15T16:22:50;8.23;;;7.63;;
14789;SDS011;7486;51.010;10.366;2024-01-15T16:25:55;5.13;;;3.27;;
14789;SDS011;7486;51.010;10.366;2024-01-15T16:28:42;4.23;;;2.60;;
14789;SDS011;7486;51.010;10.366;2024-01-15T16:31:27;4.23;;;3.70;;
14789;SDS011;7486;51.010;10.366;2024-01-15T16:34:13;3.00;;;2.70;;
14789;SDS011;7486;51.010;10.366;2024-01-15T16:36:58;3.53;;;2.20;;
14789;SDS011;7486;51.010;10.366;2024-01-15T16:39:44;4.50;;;2.37;;